Main page
METAR-TAF:

METAR-TAF

Airports :

Hamedan, Iran

Hamedan International Airport

latitude: 34-52-05N, longitude: 048-33-08E, elevation: 1757 m

Current weather observation

The report was made 40 minutes ago, at 19:52 UTC
Wind 4 kt from the West
Temperature 12°C
Humidity 76%
Pressure 1022 hPa
Visibility: 8000 m
Few clouds at a height of 3000 ft, Cumulonimbus.
Scattered clouds at a height of 3500 ft
thunderstorm

METAR: OIHH 301952Z 26004KT 8000 TS FEW030CB SCT035 12/08 Q1022

Time: 01:02 (20:32 UTC)


TAF: missing

Weather observations and forecasts of more than 4000 airports (METAR and TAF reports).

The available stations are represented by yellow and red dots on the map.

Hover mouse over dot to see the name of the station.

Then click to see weather observations and forecasts.

To change the map : click on the green buttons with a black cross to zoom in, on the green button with a dash to zoom out, or on the green arrows for adjacent maps.


METAR-TAF: